Time;durP1;ratioP1;P1;durP2;ratioP2;P2;SDS_P1;SDS_P2;PMS_P1;PMS_P2;Temp;Humidity;BMP_temperature;BMP_pressure;BME280_temperature;BME280_humidity;BME280_pressure;Samples;Min_cycle;Max_cycle;Signal;HPM_P1;HPM_P2
2022/03/18 00:00:33;;;;;;;10.00;9.70;;;8.60;99.90;;;;;;5061091;28;20358;-82
2022/03/18 00:03:01;;;;;;;10.20;9.90;;;8.60;99.90;;;;;;5060760;28;20231;-82
2022/03/18 00:05:29;;;;;;;10.10;9.80;;;8.60;99.90;;;;;;5060569;28;20230;-83
2022/03/18 00:07:56;;;;;;;10.27;9.97;;;8.60;99.90;;;;;;5059910;28;20235;-83
2022/03/18 00:10:24;;;;;;;10.40;10.10;;;8.60;99.90;;;;;;5064088;28;20311;-83
2022/03/18 00:12:54;;;;;;;10.40;10.10;;;8.60;99.90;;;;;;5061219;28;20277;-83
2022/03/18 00:15:27;;;;;;;10.13;9.83;;;8.60;99.90;;;;;;5065207;28;20215;-82
2022/03/18 00:17:55;;;;;;;10.50;10.20;;;8.50;99.90;;;;;;5068291;28;20281;-83
2022/03/18 00:20:24;;;;;;;10.40;10.10;;;8.50;99.90;;;;;;5061777;28;20235;-83
2022/03/18 00:22:52;;;;;;;10.40;10.10;;;8.50;99.90;;;;;;5062552;28;20234;-83
2022/03/18 00:25:21;;;;;;;10.30;10.00;;;8.50;99.90;;;;;;5063509;28;20234;-82
2022/03/18 00:27:49;;;;;;;10.10;9.80;;;8.50;99.90;;;;;;5067162;28;20222;-82
2022/03/18 00:30:19;;;;;;;10.10;9.80;;;8.50;99.90;;;;;;5078985;28;20218;-83
2022/03/18 00:32:51;;;;;;;10.40;10.10;;;8.40;99.90;;;;;;5078584;28;20218;-84
2022/03/18 00:35:19;;;;;;;10.23;9.93;;;8.40;99.90;;;;;;5070753;28;20299;-83
2022/03/18 00:37:47;;;;;;;10.30;10.00;;;8.40;99.90;;;;;;5058211;28;20230;-83
2022/03/18 00:40:15;;;;;;;10.37;10.07;;;8.40;99.90;;;;;;5058974;28;20231;-83
2022/03/18 00:42:43;;;;;;;10.37;10.07;;;8.40;99.90;;;;;;5058063;28;20227;-83
2022/03/18 00:45:11;;;;;;;10.33;10.03;;;8.30;99.90;;;;;;5070922;28;20223;-82
2022/03/18 00:53:10;;;;;;;10.70;10.40;;;8.30;99.90;;;;;;5059231;28;20653;-83
2022/03/18 00:55:38;;;;;;;10.60;10.30;;;8.30;99.90;;;;;;5058280;28;20211;-83
2022/03/18 00:58:06;;;;;;;10.50;10.20;;;8.20;99.90;;;;;;5059165;28;20215;-83
2022/03/18 01:00:34;;;;;;;10.50;10.20;;;8.20;99.90;;;;;;5058801;28;20230;-83
2022/03/18 01:03:03;;;;;;;10.40;10.10;;;8.30;99.90;;;;;;5058834;28;20284;-83
2022/03/18 01:05:31;;;;;;;10.50;10.20;;;8.30;99.90;;;;;;5058971;28;20226;-83
2022/03/18 01:07:58;;;;;;;10.40;10.10;;;8.20;99.90;;;;;;5058831;28;20227;-83
2022/03/18 01:10:26;;;;;;;10.47;10.17;;;8.20;99.90;;;;;;5060643;28;20310;-83
2022/03/18 01:12:54;;;;;;;10.50;10.20;;;8.20;99.90;;;;;;5058568;28;20240;-83
2022/03/18 01:15:22;;;;;;;10.40;10.10;;;8.10;99.90;;;;;;5058220;28;20230;-83
2022/03/18 01:17:49;;;;;;;10.80;10.50;;;8.10;99.90;;;;;;5058300;28;20237;-82
2022/03/18 01:20:19;;;;;;;10.50;10.20;;;8.10;99.90;;;;;;5058208;28;20230;-83
2022/03/18 01:22:47;;;;;;;10.80;10.50;;;8.10;99.90;;;;;;5057833;28;20222;-83
2022/03/18 01:25:14;;;;;;;10.70;10.40;;;8.10;99.90;;;;;;5058859;28;20234;-82
2022/03/18 01:27:42;;;;;;;10.70;10.40;;;8.10;99.90;;;;;;5058982;28;20285;-83
2022/03/18 01:30:13;;;;;;;10.40;10.10;;;8.10;99.90;;;;;;5058318;28;20365;-83
2022/03/18 01:32:41;;;;;;;10.57;10.27;;;8.10;99.90;;;;;;5057834;28;20233;-83
2022/03/18 01:35:10;;;;;;;10.60;10.30;;;8.10;99.90;;;;;;5057894;28;20231;-83
2022/03/18 01:37:40;;;;;;;10.70;10.40;;;8.10;99.90;;;;;;5058425;28;20231;-83
2022/03/18 01:40:09;;;;;;;10.80;10.50;;;8.00;99.90;;;;;;5058781;28;20227;-83
2022/03/18 01:42:37;;;;;;;10.60;10.30;;;8.00;99.90;;;;;;5059145;28;20234;-82
2022/03/18 01:45:06;;;;;;;10.77;10.47;;;8.00;99.90;;;;;;5058976;28;20231;-83
2022/03/18 01:47:34;;;;;;;10.70;10.40;;;8.00;99.90;;;;;;5058804;28;20242;-83
2022/03/18 01:50:02;;;;;;;10.73;10.43;;;8.00;99.90;;;;;;5058026;28;20243;-83
2022/03/18 01:52:29;;;;;;;10.90;10.60;;;8.00;99.90;;;;;;5058558;28;20219;-83
2022/03/18 01:54:59;;;;;;;10.97;10.67;;;7.90;99.90;;;;;;5058151;28;20238;-82
2022/03/18 01:57:28;;;;;;;10.80;10.50;;;7.90;99.90;;;;;;5057826;28;20231;-83
2022/03/18 01:59:56;;;;;;;10.90;10.60;;;7.90;99.90;;;;;;5059444;28;20280;-83
2022/03/18 02:02:24;;;;;;;11.10;10.80;;;7.90;99.90;;;;;;5060892;28;20234;-83
2022/03/18 02:04:52;;;;;;;10.90;10.60;;;7.90;99.90;;;;;;5061210;28;20231;-83
2022/03/18 02:07:20;;;;;;;10.80;10.50;;;7.90;99.90;;;;;;5061428;28;20234;-83
2022/03/18 02:09:48;;;;;;;11.10;10.80;;;7.90;99.90;;;;;;5060982;28;20231;-83
2022/03/18 02:12:18;;;;;;;10.90;10.60;;;7.80;99.90;;;;;;5060948;28;20253;-83
2022/03/18 02:14:48;;;;;;;11.20;10.90;;;7.80;99.90;;;;;;5061285;28;20234;-83
2022/03/18 02:17:18;;;;;;;11.27;10.97;;;7.80;99.90;;;;;;5060844;28;20235;-83
2022/03/18 02:19:48;;;;;;;11.10;10.80;;;7.80;99.90;;;;;;5061542;28;20226;-83
2022/03/18 02:22:20;;;;;;;11.00;10.70;;;7.70;99.90;;;;;;5061022;28;20237;-83
2022/03/18 02:24:51;;;;;;;10.80;10.50;;;7.70;99.90;;;;;;5060568;28;20235;-83
2022/03/18 02:27:20;;;;;;;11.07;10.77;;;7.70;99.90;;;;;;5060032;28;20234;-83
2022/03/18 02:29:48;;;;;;;11.00;10.70;;;7.70;99.90;;;;;;5062159;28;20238;-83
2022/03/18 02:32:16;;;;;;;11.10;10.80;;;7.70;99.90;;;;;;5073837;28;20281;-82
2022/03/18 02:34:44;;;;;;;11.07;10.77;;;7.70;99.90;;;;;;5067375;28;20245;-82
2022/03/18 02:37:12;;;;;;;11.10;10.80;;;7.60;99.90;;;;;;5078063;28;20210;-83
2022/03/18 02:39:40;;;;;;;11.27;10.97;;;7.60;99.90;;;;;;5070133;28;20230;-81
2022/03/18 02:42:09;;;;;;;11.10;10.80;;;7.60;99.90;;;;;;5061560;28;20235;-82
2022/03/18 02:44:37;;;;;;;11.10;10.80;;;7.60;99.90;;;;;;5069751;28;20211;-83
2022/03/18 02:47:06;;;;;;;11.10;10.80;;;7.60;99.90;;;;;;5068203;28;20237;-82
2022/03/18 02:49:33;;;;;;;11.60;11.20;;;7.60;99.90;;;;;;5062218;28;20235;-83
2022/03/18 02:52:01;;;;;;;11.30;10.90;;;7.50;99.90;;;;;;5060126;28;20254;-82
2022/03/18 02:54:29;;;;;;;11.40;11.00;;;7.50;99.90;;;;;;5060863;28;20227;-83
2022/03/18 02:56:57;;;;;;;11.50;11.10;;;7.50;99.90;;;;;;5060909;28;20231;-82
2022/03/18 02:59:26;;;;;;;11.40;11.00;;;7.40;99.90;;;;;;5060281;28;20227;-82
2022/03/18 03:01:55;;;;;;;11.20;10.90;;;7.40;99.90;;;;;;5060947;28;20230;-83
2022/03/18 03:04:22;;;;;;;11.67;11.27;;;7.40;99.90;;;;;;5060217;28;20239;-83
2022/03/18 03:09:35;;;;;;;11.43;11.03;;;7.40;99.90;;;;;;5061696;28;20230;-83
2022/03/18 03:12:04;;;;;;;11.67;11.27;;;7.30;99.90;;;;;;5059502;28;20235;-83
2022/03/18 03:14:33;;;;;;;11.33;10.93;;;7.30;99.90;;;;;;5060668;28;20273;-83
2022/03/18 03:17:01;;;;;;;11.50;11.10;;;7.40;99.90;;;;;;5059923;28;20227;-83
2022/03/18 03:19:28;;;;;;;11.10;10.80;;;7.40;99.90;;;;;;5061077;28;20227;-83
2022/03/18 03:21:56;;;;;;;11.43;11.03;;;7.40;99.90;;;;;;5060289;28;20289;-83
2022/03/18 03:24:24;;;;;;;11.10;10.80;;;7.40;99.90;;;;;;5060504;28;20229;-83
2022/03/18 03:26:52;;;;;;;11.30;10.90;;;7.40;99.90;;;;;;5059998;28;20235;-83
2022/03/18 03:29:19;;;;;;;11.27;10.90;;;7.30;99.90;;;;;;5060129;28;20289;-83
2022/03/18 03:31:49;;;;;;;11.30;10.90;;;7.30;99.90;;;;;;5060444;28;20222;-83
2022/03/18 03:34:17;;;;;;;11.10;10.80;;;7.30;99.90;;;;;;5060324;28;20231;-83
2022/03/18 03:36:45;;;;;;;11.40;11.00;;;7.30;99.90;;;;;;5059993;28;20226;-82
2022/03/18 03:39:13;;;;;;;11.37;10.97;;;7.20;99.90;;;;;;5060118;28;20289;-83
2022/03/18 03:41:41;;;;;;;11.37;10.97;;;7.20;99.90;;;;;;5060549;28;20230;-83
2022/03/18 03:44:09;;;;;;;11.40;11.00;;;7.20;99.90;;;;;;5060119;28;20260;-83
2022/03/18 03:46:36;;;;;;;11.40;11.00;;;7.20;99.90;;;;;;5061261;28;20247;-83
2022/03/18 03:49:06;;;;;;;11.30;10.90;;;7.20;99.90;;;;;;5060372;28;20269;-83
2022/03/18 03:51:34;;;;;;;11.57;11.17;;;7.10;99.90;;;;;;5059264;28;20230;-83
2022/03/18 03:54:02;;;;;;;11.60;11.20;;;7.20;99.90;;;;;;5059324;28;20234;-82
2022/03/18 03:56:30;;;;;;;11.30;10.90;;;7.10;99.90;;;;;;5059535;28;20231;-82
2022/03/18 03:58:57;;;;;;;11.10;10.80;;;7.10;99.90;;;;;;5059786;28;20231;-83
2022/03/18 04:01:25;;;;;;;11.50;11.10;;;7.10;99.90;;;;;;5060260;28;20237;-83
2022/03/18 04:03:54;;;;;;;11.40;11.00;;;7.10;99.90;;;;;;5059576;28;20235;-83
2022/03/18 04:06:23;;;;;;;10.93;10.63;;;7.10;99.90;;;;;;5059403;28;20223;-82
2022/03/18 04:08:51;;;;;;;11.20;10.90;;;7.00;99.90;;;;;;5062032;28;20250;-83
2022/03/18 04:11:19;;;;;;;11.17;10.87;;;7.00;99.90;;;;;;5072894;28;20237;-83
2022/03/18 04:13:47;;;;;;;11.20;10.90;;;7.00;99.90;;;;;;5060576;28;20325;-82
2022/03/18 04:16:15;;;;;;;11.13;10.83;;;7.00;99.90;;;;;;5060349;28;20291;-83
2022/03/18 04:18:43;;;;;;;11.10;10.80;;;7.10;99.90;;;;;;5060574;28;20256;-83
2022/03/18 04:21:11;;;;;;;11.60;11.20;;;7.10;99.90;;;;;;5061383;28;20234;-83
2022/03/18 04:23:40;;;;;;;11.20;10.90;;;7.00;99.90;;;;;;5075526;28;20286;-83
2022/03/18 04:26:08;;;;;;;11.00;10.70;;;7.00;99.90;;;;;;5078056;28;20223;-83
2022/03/18 04:28:36;;;;;;;11.40;11.00;;;7.00;99.90;;;;;;5069361;28;20233;-83
2022/03/18 04:31:04;;;;;;;11.07;10.77;;;7.00;99.90;;;;;;5059111;28;20243;-83
2022/03/18 04:33:32;;;;;;;11.00;10.70;;;7.00;99.90;;;;;;5058946;28;20229;-83
2022/03/18 04:36:00;;;;;;;11.30;10.90;;;7.00;99.90;;;;;;5058619;28;20235;-82
2022/03/18 04:38:27;;;;;;;11.50;11.10;;;7.00;99.90;;;;;;5060096;28;20234;-83
2022/03/18 04:40:57;;;;;;;11.57;11.17;;;7.00;99.90;;;;;;5059186;28;20253;-83
2022/03/18 04:43:25;;;;;;;11.67;11.27;;;7.00;99.90;;;;;;5059330;28;20235;-83
2022/03/18 04:45:53;;;;;;;11.43;11.03;;;7.00;99.90;;;;;;5058715;28;20271;-82
2022/03/18 04:48:21;;;;;;;11.53;11.13;;;6.90;99.90;;;;;;5059122;28;20249;-83
2022/03/18 04:50:49;;;;;;;11.33;10.93;;;6.90;99.90;;;;;;5059793;28;20234;-83
2022/03/18 04:53:17;;;;;;;11.53;11.13;;;6.90;99.90;;;;;;5059432;28;20222;-83
2022/03/18 04:55:45;;;;;;;11.10;10.80;;;6.90;99.90;;;;;;5059809;28;20233;-83
2022/03/18 04:58:14;;;;;;;11.23;10.90;;;6.90;99.90;;;;;;5070138;28;20246;-83
2022/03/18 05:00:42;;;;;;;11.40;11.00;;;6.80;99.90;;;;;;5065139;28;20313;-83
2022/03/18 05:03:10;;;;;;;12.17;11.77;;;6.90;99.90;;;;;;5060241;28;20246;-83
2022/03/18 05:05:38;;;;;;;11.50;11.10;;;6.90;99.90;;;;;;5060722;28;20298;-83
2022/03/18 05:08:06;;;;;;;11.77;11.37;;;6.90;99.90;;;;;;5060623;28;20293;-84
2022/03/18 05:10:34;;;;;;;11.50;11.10;;;6.90;99.90;;;;;;5040415;28;20247;-83
2022/03/18 05:13:02;;;;;;;11.53;11.13;;;6.90;99.90;;;;;;5054761;28;20234;-83
2022/03/18 05:15:32;;;;;;;11.70;11.30;;;6.90;99.90;;;;;;5060921;28;20237;-82
2022/03/18 05:18:00;;;;;;;11.57;11.17;;;6.80;99.90;;;;;;5061120;28;20237;-83
2022/03/18 05:20:29;;;;;;;11.53;11.13;;;6.80;99.90;;;;;;5060758;28;20251;-83
2022/03/18 05:22:56;;;;;;;11.60;11.20;;;6.80;99.90;;;;;;5059705;28;20227;-83
2022/03/18 05:25:27;;;;;;;11.70;11.30;;;6.80;99.90;;;;;;5059714;28;20235;-83
2022/03/18 05:27:55;;;;;;;11.63;11.23;;;6.80;99.90;;;;;;5059667;28;20241;-83
2022/03/18 05:30:24;;;;;;;11.70;11.30;;;6.80;99.90;;;;;;5059598;28;20239;-83
2022/03/18 05:32:53;;;;;;;11.70;11.30;;;6.70;99.90;;;;;;5059589;28;20291;-83
2022/03/18 05:35:21;;;;;;;11.30;10.90;;;6.80;99.90;;;;;;5061471;28;20231;-83
2022/03/18 05:37:49;;;;;;;11.60;11.20;;;6.70;99.90;;;;;;5063438;28;20235;-83
2022/03/18 05:40:18;;;;;;;11.47;11.07;;;6.70;99.90;;;;;;5063976;28;20237;-84
2022/03/18 05:42:46;;;;;;;11.53;11.13;;;6.70;99.90;;;;;;5063228;28;20237;-83
2022/03/18 05:45:14;;;;;;;11.43;11.03;;;6.70;99.90;;;;;;5071829;28;20306;-83
2022/03/18 05:47:47;;;;;;;11.03;10.73;;;6.70;99.90;;;;;;5093954;22;20235;-82
2022/03/18 05:53:05;;;;;;;11.53;11.13;;;6.60;99.90;;;;;;5084089;28;20225;-82
2022/03/18 06:00:59;;;;;;;11.57;11.17;;;6.70;99.90;;;;;;5083861;28;20313;-83
2022/03/18 06:03:29;;;;;;;11.43;11.03;;;6.60;99.90;;;;;;5084699;28;20257;-83
2022/03/18 06:16:58;;;;;;;11.43;11.03;;;6.70;99.90;;;;;;5102552;28;20214;-81
2022/03/18 06:19:28;;;;;;;11.80;11.40;;;6.70;99.90;;;;;;5095832;28;20246;-83
2022/03/18 06:22:07;;;;;;;11.73;11.33;;;6.70;99.90;;;;;;5093543;28;20238;-82
2022/03/18 06:24:36;;;;;;;11.60;11.20;;;6.80;99.90;;;;;;5085701;28;21113;-84
2022/03/18 06:27:04;;;;;;;11.70;11.30;;;6.80;99.90;;;;;;5090815;28;20238;-85
2022/03/18 06:29:37;;;;;;;11.50;11.10;;;6.90;99.90;;;;;;5090870;28;20315;-84
2022/03/18 06:32:06;;;;;;;11.80;11.40;;;6.80;99.90;;;;;;5089254;28;20257;-86
2022/03/18 06:34:34;;;;;;;11.20;10.90;;;6.90;99.90;;;;;;5088494;28;20241;-83
2022/03/18 06:37:05;;;;;;;11.60;11.20;;;6.90;99.90;;;;;;5084559;28;20218;-81
2022/03/18 06:39:34;;;;;;;11.53;11.13;;;6.90;99.90;;;;;;5089075;28;20234;-81
2022/03/18 06:42:04;;;;;;;11.50;11.10;;;6.90;99.90;;;;;;5090482;28;20317;-82
2022/03/18 06:44:32;;;;;;;11.70;11.30;;;6.90;99.90;;;;;;5088327;28;20234;-81
2022/03/18 06:47:00;;;;;;;11.50;11.10;;;6.90;99.90;;;;;;5096941;28;20229;-80
2022/03/18 06:49:29;;;;;;;11.40;11.00;;;6.90;99.90;;;;;;5106000;28;20232;-83
2022/03/18 06:51:59;;;;;;;11.60;11.20;;;6.90;99.90;;;;;;5106436;28;20241;-82
2022/03/18 06:54:31;;;;;;;11.50;11.10;;;6.90;99.90;;;;;;5104668;28;20226;-82
2022/03/18 06:56:58;;;;;;;11.73;11.33;;;6.90;99.90;;;;;;5103278;28;20232;-83
2022/03/18 06:59:26;;;;;;;11.83;11.43;;;6.90;99.90;;;;;;5104820;28;20237;-82
2022/03/18 07:01:56;;;;;;;11.70;11.30;;;6.90;99.90;;;;;;5109972;28;20221;-81
2022/03/18 07:04:25;;;;;;;11.10;10.80;;;7.00;99.90;;;;;;5108348;28;20217;-81
2022/03/18 07:06:55;;;;;;;11.10;10.80;;;7.00;99.90;;;;;;5104124;28;20682;-82
2022/03/18 07:09:24;;;;;;;11.10;10.80;;;7.00;99.90;;;;;;5104652;28;20230;-83
2022/03/18 07:14:41;;;;;;;10.90;10.60;;;7.10;99.90;;;;;;5117033;27;20239;-85
2022/03/18 07:19:59;;;;;;;10.73;10.43;;;7.20;99.90;;;;;;5110273;28;20202;-86
2022/03/18 07:22:36;;;;;;;10.50;10.20;;;7.30;99.90;;;;;;5113065;28;20232;-87
2022/03/18 07:25:14;;;;;;;10.73;10.43;;;7.40;99.90;;;;;;5119648;27;20236;-86
2022/03/18 07:31:13;;;;;;;10.50;10.20;;;7.50;99.90;;;;;;5112579;28;20227;-83
2022/03/18 07:33:44;;;;;;;10.30;10.00;;;7.50;99.90;;;;;;5105112;28;20256;-85
2022/03/18 07:36:19;;;;;;;10.50;10.20;;;7.60;99.90;;;;;;5093833;28;20198;-83
2022/03/18 07:41:56;;;;;;;10.50;10.20;;;7.40;99.90;;;;;;5093345;27;20224;-83
2022/03/18 07:48:26;;;;;;;10.50;10.20;;;7.60;99.90;;;;;;5117457;27;20245;-83
2022/03/18 07:59:53;;;;;;;10.43;10.13;;;7.60;99.90;;;;;;5073237;28;20214;-83
2022/03/18 08:02:38;;;;;;;10.20;9.90;;;7.60;99.90;;;;;;5101537;28;20217;-84
2022/03/18 08:05:54;;;;;;;10.40;10.10;;;7.50;99.90;;;;;;5101699;28;20198;-86
2022/03/18 08:22:44;;;;;;;10.30;10.00;;;7.90;99.90;;;;;;4970242;28;20230;-84
2022/03/18 08:27:59;;;;;;;10.13;9.83;;;8.30;99.90;;;;;;5048338;28;21092;-87
2022/03/18 08:30:28;;;;;;;10.30;10.00;;;8.70;99.90;;;;;;5082108;28;20244;-87
2022/03/18 08:33:19;;;;;;;10.50;10.20;;;8.70;99.90;;;;;;5083139;28;20234;-89
2022/03/18 08:35:58;;;;;;;10.57;10.27;;;8.60;99.90;;;;;;5084559;28;20291;-90
2022/03/18 08:38:32;;;;;;;10.30;10.00;;;8.60;99.90;;;;;;5082733;28;20230;-86
2022/03/18 08:41:10;;;;;;;10.00;9.70;;;8.70;99.90;;;;;;5081823;28;20229;-88
2022/03/18 08:46:44;;;;;;;10.30;10.00;;;8.60;99.90;;;;;;5081971;28;20242;-87
2022/03/18 08:49:30;;;;;;;10.40;10.10;;;8.60;99.90;;;;;;5081631;28;20260;-88
2022/03/18 08:52:04;;;;;;;10.20;9.90;;;8.60;99.90;;;;;;5080697;28;20249;-88
2022/03/18 08:58:30;;;;;;;10.20;9.90;;;8.60;99.90;;;;;;5083223;28;20260;-86
2022/03/18 09:01:16;;;;;;;10.17;9.87;;;8.80;99.90;;;;;;5083070;28;20213;-88
2022/03/18 09:06:30;;;;;;;10.67;10.37;;;8.80;99.90;;;;;;5082305;28;20283;-88
2022/03/18 09:09:03;;;;;;;10.67;10.37;;;8.90;99.90;;;;;;5080821;28;20241;-85
2022/03/18 09:11:41;;;;;;;10.70;10.40;;;9.20;99.90;;;;;;5086118;28;20222;-85
2022/03/18 09:14:16;;;;;;;10.80;10.50;;;9.40;99.90;;;;;;5097319;28;20234;-85
2022/03/18 09:16:49;;;;;;;10.60;10.30;;;9.40;99.90;;;;;;5094941;28;20327;-86
2022/03/18 09:19:17;;;;;;;10.67;10.37;;;9.40;99.90;;;;;;5083562;28;20291;-86
2022/03/18 09:21:48;;;;;;;10.67;10.37;;;9.50;99.90;;;;;;5084112;28;20234;-86
2022/03/18 09:24:20;;;;;;;10.50;10.20;;;9.70;99.90;;;;;;5085636;28;20285;-86
2022/03/18 09:26:53;;;;;;;10.47;10.17;;;9.60;99.90;;;;;;5085447;28;20241;-86
2022/03/18 09:29:59;;;;;;;10.30;10.00;;;9.70;99.90;;;;;;5084818;28;20237;-86
2022/03/18 09:32:28;;;;;;;10.53;10.23;;;10.00;99.90;;;;;;5080704;28;20234;-86
2022/03/18 09:34:59;;;;;;;10.57;10.27;;;10.20;99.90;;;;;;5084381;28;20217;-86
2022/03/18 09:37:27;;;;;;;10.63;10.33;;;10.20;99.90;;;;;;5086088;28;20735;-86
2022/03/18 09:40:14;;;;;;;10.90;10.60;;;9.90;99.90;;;;;;5085342;28;20294;-85
2022/03/18 09:42:59;;;;;;;10.73;10.43;;;9.90;99.90;;;;;;5083412;28;20226;-86
2022/03/18 09:45:37;;;;;;;10.57;10.27;;;10.10;99.90;;;;;;5089255;28;20341;-85
2022/03/18 09:48:17;;;;;;;10.87;10.57;;;10.30;99.90;;;;;;5094957;28;20241;-86
2022/03/18 09:50:56;;;;;;;10.67;10.37;;;10.40;99.90;;;;;;5085062;28;20221;-86
2022/03/18 09:53:25;;;;;;;10.30;10.00;;;10.20;99.90;;;;;;5082382;28;20210;-86
2022/03/18 09:55:55;;;;;;;10.63;10.33;;;10.10;99.90;;;;;;5082836;28;20237;-85
2022/03/18 09:58:26;;;;;;;10.80;10.50;;;10.30;99.90;;;;;;5082901;28;20267;-86
2022/03/18 10:01:03;;;;;;;10.63;10.33;;;10.40;99.90;;;;;;5083109;28;20215;-86
2022/03/18 10:04:19;;;;;;;10.60;10.30;;;10.60;99.90;;;;;;5082328;28;20230;-87
2022/03/18 10:07:13;;;;;;;10.60;10.30;;;10.50;99.90;;;;;;5082993;28;20269;-85
2022/03/18 10:12:39;;;;;;;10.90;10.60;;;10.50;99.90;;;;;;5080543;28;20230;-86
2022/03/18 10:15:16;;;;;;;10.70;10.40;;;10.60;99.90;;;;;;5082540;28;20222;-86
2022/03/18 10:18:04;;;;;;;10.70;10.40;;;10.60;99.90;;;;;;5081001;28;20297;-87
2022/03/18 10:23:27;;;;;;;10.90;10.60;;;10.70;99.90;;;;;;5082723;28;20221;-87
2022/03/18 10:25:57;;;;;;;10.80;10.50;;;10.90;99.90;;;;;;5084123;28;20732;-85
2022/03/18 10:28:46;;;;;;;10.60;10.30;;;10.80;99.90;;;;;;5083851;28;20226;-87
2022/03/18 10:31:22;;;;;;;10.90;10.60;;;10.80;99.90;;;;;;5083240;28;20246;-87
2022/03/18 10:40:03;;;;;;;10.40;10.10;;;11.00;99.90;;;;;;5094481;27;20226;-88
2022/03/18 10:42:31;;;;;;;10.37;10.07;;;11.00;99.90;;;;;;5088456;28;20228;-89
2022/03/18 10:45:11;;;;;;;10.50;10.20;;;11.00;99.90;;;;;;5085260;28;20257;-89
2022/03/18 10:50:45;;;;;;;10.00;9.70;;;11.00;99.90;;;;;;5087718;28;20253;-89
2022/03/18 10:53:26;;;;;;;10.30;10.00;;;11.10;99.90;;;;;;5085104;28;20230;-89
2022/03/18 10:58:56;;;;;;;9.70;9.40;;;11.20;99.90;;;;;;5085302;28;20214;-90
2022/03/18 11:07:40;;;;;;;10.10;9.80;;;11.30;99.90;;;;;;5084608;28;20245;-89
2022/03/18 11:16:31;;;;;;;10.43;10.13;;;12.30;99.90;;;;;;5083072;28;20264;-91
2022/03/18 11:22:01;;;;;;;10.50;10.20;;;12.70;99.90;;;;;;5083397;28;20276;-89
2022/03/18 11:25:09;;;;;;;10.53;10.23;;;12.80;99.90;;;;;;5084722;28;20257;-90
2022/03/18 11:27:44;;;;;;;10.50;10.20;;;13.30;99.90;;;;;;5084956;28;20298;-90
2022/03/18 11:30:26;;;;;;;10.60;10.30;;;13.60;99.90;;;;;;5083794;28;20289;-87
2022/03/18 11:33:22;;;;;;;10.00;9.70;;;13.80;99.90;;;;;;5084416;28;20233;-88
2022/03/18 11:36:25;;;;;;;10.50;10.20;;;13.80;99.90;;;;;;5082926;28;20297;-87
2022/03/18 11:39:06;;;;;;;9.97;9.67;;;13.80;99.90;;;;;;5081812;28;20229;-86
2022/03/18 11:47:46;;;;;;;10.30;10.00;;;14.20;99.90;;;;;;5122175;22;20283;-85
2022/03/18 11:50:50;;;;;;;10.70;10.40;;;14.30;99.90;;;;;;5102931;28;20239;-81
2022/03/18 11:53:53;;;;;;;10.27;9.97;;;14.60;99.90;;;;;;5101688;28;20221;-83
2022/03/18 11:56:42;;;;;;;10.70;10.40;;;14.80;99.90;;;;;;5019598;28;21053;-82
2022/03/18 11:59:43;;;;;;;10.60;10.30;;;14.60;99.90;;;;;;4999839;28;20265;-82
2022/03/18 12:02:12;;;;;;;10.50;10.20;;;14.80;99.90;;;;;;5067802;28;20229;-82
2022/03/18 12:04:43;;;;;;;10.68;10.38;;;14.90;99.90;;;;;;5080672;28;20264;-82
2022/03/18 12:07:19;;;;;;;10.50;10.20;;;15.00;99.90;;;;;;5081939;28;20237;-82
2022/03/18 12:10:01;;;;;;;10.17;9.87;;;14.80;99.90;;;;;;5083459;28;20240;-83
2022/03/18 12:12:33;;;;;;;10.20;9.90;;;14.70;99.90;;;;;;5090812;28;20229;-84
2022/03/18 12:15:05;;;;;;;10.52;10.23;;;14.80;99.90;;;;;;5089612;28;20226;-83
2022/03/18 12:17:42;;;;;;;10.35;10.05;;;15.00;99.90;;;;;;5086799;28;20240;-84
2022/03/18 12:20:14;;;;;;;10.20;9.90;;;14.90;99.90;;;;;;5084812;28;20240;-84
2022/03/18 12:22:44;;;;;;;10.45;10.15;;;14.80;99.90;;;;;;5082500;28;20294;-83
2022/03/18 12:25:14;;;;;;;10.77;10.48;;;14.90;99.90;;;;;;5081674;28;20245;-82
2022/03/18 12:27:44;;;;;;;10.77;10.48;;;14.70;99.90;;;;;;5083110;28;20233;-84
2022/03/18 12:30:17;;;;;;;10.90;10.60;;;14.80;99.90;;;;;;5082951;28;20313;-84
2022/03/18 12:32:52;;;;;;;10.70;10.40;;;14.60;99.90;;;;;;5082614;28;20240;-82
2022/03/18 12:35:25;;;;;;;10.90;10.60;;;14.80;99.90;;;;;;5083417;28;20226;-83
2022/03/18 12:38:05;;;;;;;10.88;10.57;;;15.00;99.90;;;;;;5081910;28;20234;-82
2022/03/18 12:40:33;;;;;;;10.70;10.40;;;15.10;99.90;;;;;;5082380;28;20254;-82
2022/03/18 12:43:03;;;;;;;10.85;10.55;;;15.20;99.90;;;;;;5080884;28;20234;-82
2022/03/18 12:45:36;;;;;;;11.13;10.82;;;15.10;99.90;;;;;;5076861;28;20245;-78
2022/03/18 12:48:06;;;;;;;10.98;10.68;;;14.90;99.90;;;;;;5074941;28;20268;-79
2022/03/18 12:50:36;;;;;;;11.32;11.02;;;15.00;99.90;;;;;;5077477;28;20226;-82
2022/03/18 12:53:12;;;;;;;10.90;10.60;;;15.00;99.90;;;;;;5080728;28;20249;-83
2022/03/18 12:55:41;;;;;;;10.80;10.50;;;14.90;99.90;;;;;;5080800;28;20232;-83
2022/03/18 12:58:10;;;;;;;11.00;10.70;;;15.20;99.90;;;;;;5081606;28;20256;-82
2022/03/18 13:00:42;;;;;;;10.90;10.60;;;15.10;99.90;;;;;;5081566;28;20233;-83
2022/03/18 13:03:19;;;;;;;10.70;10.40;;;15.20;99.90;;;;;;5080405;28;20230;-82
2022/03/18 13:05:50;;;;;;;11.10;10.80;;;15.00;99.90;;;;;;5082126;28;20316;-83
2022/03/18 13:08:18;;;;;;;10.80;10.50;;;14.80;99.90;;;;;;5083571;28;20272;-83
2022/03/18 13:10:56;;;;;;;10.80;10.50;;;14.60;99.90;;;;;;5081046;28;20258;-83
2022/03/18 13:13:25;;;;;;;10.60;10.30;;;15.00;99.90;;;;;;5080871;28;20229;-83
2022/03/18 13:15:59;;;;;;;10.80;10.50;;;14.90;99.90;;;;;;5082827;28;20253;-82
2022/03/18 13:18:30;;;;;;;10.93;10.63;;;15.00;99.90;;;;;;5080519;28;20254;-83
2022/03/18 13:21:00;;;;;;;10.80;10.50;;;14.90;99.90;;;;;;5081175;28;20233;-83
2022/03/18 13:23:38;;;;;;;10.50;10.20;;;14.50;99.90;;;;;;5085632;28;20256;-82
2022/03/18 13:26:07;;;;;;;10.80;10.50;;;14.60;99.90;;;;;;5084135;28;20233;-83
2022/03/18 13:28:36;;;;;;;10.40;10.10;;;14.80;99.90;;;;;;5082440;28;20288;-83
2022/03/18 13:33:53;;;;;;;10.37;10.07;;;14.80;99.90;;;;;;5082325;28;20214;-82
2022/03/18 13:36:28;;;;;;;10.77;10.47;;;14.50;99.90;;;;;;5085446;28;20230;-83
2022/03/18 13:38:57;;;;;;;10.80;10.50;;;14.20;99.90;;;;;;5081112;28;20229;-84
2022/03/18 13:41:27;;;;;;;10.80;10.50;;;14.10;99.90;;;;;;5082491;28;20238;-83
2022/03/18 13:43:57;;;;;;;10.60;10.30;;;14.30;99.90;;;;;;5081919;28;20225;-83
2022/03/18 13:46:31;;;;;;;10.53;10.23;;;14.30;99.90;;;;;;5081368;28;20234;-83
2022/03/18 13:49:14;;;;;;;10.73;10.43;;;14.20;99.90;;;;;;5085255;28;20240;-84
2022/03/18 13:51:49;;;;;;;10.60;10.30;;;14.40;99.90;;;;;;5089524;28;20234;-84
2022/03/18 13:54:19;;;;;;;10.30;10.00;;;14.40;99.90;;;;;;5083290;28;20284;-83
2022/03/18 13:56:59;;;;;;;10.00;9.70;;;14.60;99.90;;;;;;5085542;28;20230;-83
2022/03/18 13:59:28;;;;;;;10.40;10.10;;;14.90;99.90;;;;;;5088641;28;20226;-85
2022/03/18 14:02:03;;;;;;;10.40;10.10;;;15.20;99.90;;;;;;5084749;28;20228;-83
2022/03/18 14:04:40;;;;;;;10.15;9.85;;;15.10;99.90;;;;;;5083251;28;20237;-83
2022/03/18 14:07:09;;;;;;;10.20;9.90;;;15.00;99.90;;;;;;5083558;28;20238;-83
2022/03/18 14:09:37;;;;;;;10.70;10.40;;;15.00;99.90;;;;;;5086456;28;20222;-83
2022/03/18 14:12:18;;;;;;;10.40;10.10;;;15.00;99.90;;;;;;5084049;28;20334;-83
2022/03/18 14:14:47;;;;;;;10.60;10.30;;;15.00;99.90;;;;;;5086348;28;20280;-86
2022/03/18 14:17:17;;;;;;;10.35;10.05;;;14.60;99.90;;;;;;5095278;28;20237;-84
2022/03/18 14:19:51;;;;;;;10.80;10.50;;;14.70;99.90;;;;;;5084881;28;20377;-85
2022/03/18 14:22:39;;;;;;;10.35;10.05;;;14.50;99.90;;;;;;5087384;28;20313;-85
2022/03/18 14:25:10;;;;;;;10.40;10.10;;;14.40;99.90;;;;;;5086295;28;20239;-82
2022/03/18 14:27:39;;;;;;;9.80;9.50;;;13.70;99.90;;;;;;5086089;28;20606;-83
2022/03/18 14:30:10;;;;;;;10.27;9.97;;;13.30;99.90;;;;;;5084969;28;20280;-82
2022/03/18 14:32:43;;;;;;;10.27;9.97;;;13.10;99.90;;;;;;5087487;28;20215;-83
2022/03/18 14:35:11;;;;;;;10.30;10.00;;;12.80;99.90;;;;;;5104360;28;20253;-85
2022/03/18 14:37:40;;;;;;;10.47;10.17;;;12.70;99.90;;;;;;5067768;28;20227;-82
2022/03/18 14:40:10;;;;;;;10.53;10.23;;;12.60;99.90;;;;;;5080114;28;20207;-84
2022/03/18 14:42:39;;;;;;;10.17;9.87;;;12.60;99.90;;;;;;5079938;28;20262;-83
2022/03/18 14:45:09;;;;;;;10.17;9.87;;;12.40;99.90;;;;;;5068539;28;20241;-83
2022/03/18 14:47:38;;;;;;;10.20;9.90;;;12.50;99.90;;;;;;5093668;28;20227;-84
2022/03/18 14:50:10;;;;;;;10.17;9.87;;;12.40;99.90;;;;;;5071214;28;20226;-83
2022/03/18 14:52:38;;;;;;;10.30;10.00;;;12.40;99.90;;;;;;5068307;28;20322;-83
2022/03/18 14:57:54;;;;;;;10.50;10.20;;;12.70;99.90;;;;;;5080935;28;20226;-81
2022/03/18 15:00:23;;;;;;;10.33;10.03;;;12.60;99.90;;;;;;5075576;28;20314;-81
2022/03/18 15:02:54;;;;;;;10.20;9.90;;;12.60;99.90;;;;;;5067767;28;20230;-83